Time;durP1;ratioP1;P1;durP2;ratioP2;P2;SDS_P1;SDS_P2;PMS_P1;PMS_P2;Temp;Humidity;BMP_temperature;BMP_pressure;BME280_temperature;BME280_humidity;BME280_pressure;Samples;Min_cycle;Max_cycle;Signal;HPM_P1;HPM_P2
2022/01/29 00:01:34;;;;;;;82.28;48.03;;;7.00;99.90;;;;;;5090440;28;20051;-71
2022/01/29 00:04:00;;;;;;;84.43;48.88;;;7.20;99.90;;;;;;5091761;28;20044;-71
2022/01/29 00:06:26;;;;;;;84.78;49.03;;;6.90;99.90;;;;;;5090024;28;20444;-71
2022/01/29 00:08:54;;;;;;;85.50;48.53;;;6.40;99.90;;;;;;5090309;28;20444;-72
2022/01/29 00:11:20;;;;;;;86.10;48.35;;;6.50;99.90;;;;;;5091278;28;20109;-73
2022/01/29 00:13:46;;;;;;;90.47;49.72;;;6.50;99.90;;;;;;5089846;28;20043;-74
2022/01/29 00:16:14;;;;;;;86.93;50.55;;;6.60;99.90;;;;;;5073057;28;20063;-74
2022/01/29 00:18:40;;;;;;;81.57;49.38;;;6.50;99.90;;;;;;5106964;28;20048;-74
2022/01/29 00:21:05;;;;;;;84.57;49.83;;;6.90;99.90;;;;;;5090021;28;20052;-71
2022/01/29 00:23:31;;;;;;;90.20;51.75;;;6.90;99.90;;;;;;5090044;28;20461;-71
2022/01/29 00:25:59;;;;;;;85.47;50.63;;;;;;;;;;5090877;28;20468;-72
2022/01/29 00:28:26;;;;;;;81.45;48.28;;;6.40;99.90;;;;;;5090042;28;20422;-72
2022/01/29 00:30:52;;;;;;;84.15;48.58;;;6.50;99.90;;;;;;5072850;28;20048;-72
2022/01/29 00:33:18;;;;;;;90.00;49.28;;;7.00;99.90;;;;;;5089809;28;20093;-72
2022/01/29 00:35:43;;;;;;;82.35;50.22;;;6.90;99.90;;;;;;5089775;28;20105;-72
2022/01/29 00:38:10;;;;;;;82.18;50.78;;;6.90;99.90;;;;;;5089337;28;20055;-72
2022/01/29 00:40:37;;;;;;;88.68;49.78;;;;;;;;;;5090582;28;20105;-75
2022/01/29 00:43:04;;;;;;;87.32;51.08;;;6.90;99.90;;;;;;5088855;28;20048;-72
2022/01/29 00:45:31;;;;;;;86.85;49.83;;;7.00;99.90;;;;;;5089658;28;20058;-72
2022/01/29 00:47:57;;;;;;;79.53;49.80;;;;;;;;;;5089350;28;20063;-72
2022/01/29 00:50:23;;;;;;;87.57;50.08;;;;;;;;;;5106559;28;20043;-72
2022/01/29 00:52:49;;;;;;;88.30;51.10;;;6.90;99.90;;;;;;5105855;28;20040;-72
2022/01/29 00:55:15;;;;;;;88.45;51.03;;;7.10;99.90;;;;;;5088410;28;20101;-72
2022/01/29 00:57:42;;;;;;;99.07;51.70;;;6.70;99.90;;;;;;5088050;28;20058;-72
2022/01/29 01:00:10;;;;;;;93.30;52.42;;;7.10;99.90;;;;;;5089056;28;20230;-72
2022/01/29 01:02:37;;;;;;;101.93;53.20;;;;;;;;;;5089285;28;20551;-72
2022/01/29 01:05:04;;;;;;;108.95;56.13;;;6.80;99.90;;;;;;5089756;28;20040;-72
2022/01/29 01:07:30;;;;;;;96.88;56.10;;;7.10;99.90;;;;;;5087908;28;20071;-72
2022/01/29 01:09:56;;;;;;;104.75;56.22;;;6.70;99.90;;;;;;5088570;28;20465;-72
2022/01/29 01:12:22;;;;;;;105.78;56.72;;;;;;;;;;5089244;28;20080;-72
2022/01/29 01:14:49;;;;;;;99.10;56.03;;;6.50;99.90;;;;;;5105982;28;20454;-72
2022/01/29 01:17:14;;;;;;;108.18;57.15;;;6.80;99.90;;;;;;5088629;28;20126;-72
2022/01/29 01:19:40;;;;;;;116.78;58.47;;;6.80;99.90;;;;;;5089315;28;20069;-72
2022/01/29 01:22:06;;;;;;;113.60;58.17;;;6.80;99.90;;;;;;5089156;28;20105;-71
2022/01/29 01:24:32;;;;;;;121.88;60.75;;;6.90;99.90;;;;;;5106028;28;20044;-72
2022/01/29 01:26:58;;;;;;;121.15;62.45;;;6.60;99.90;;;;;;5089042;28;20048;-72
2022/01/29 01:29:24;;;;;;;130.02;60.95;;;6.30;99.90;;;;;;5089169;28;20491;-72
2022/01/29 01:31:49;;;;;;;121.38;61.38;;;6.10;99.90;;;;;;5106053;28;20392;-72
2022/01/29 01:34:18;;;;;;;126.63;61.15;;;6.90;99.90;;;;;;5090400;28;20040;-72
2022/01/29 01:36:52;;;;;;;123.00;61.42;;;6.80;99.90;;;;;;5089223;28;20055;-72
2022/01/29 01:39:22;;;;;;;128.38;63.75;;;;;;;;;;5072459;28;20063;-72
2022/01/29 01:41:59;;;;;;;124.68;62.65;;;;;;;;;;5072110;28;20047;-72
2022/01/29 01:44:25;;;;;;;124.45;62.53;;;6.90;99.90;;;;;;5072264;28;20086;-72
2022/01/29 01:46:51;;;;;;;130.10;61.33;;;6.30;99.90;;;;;;5089165;28;20040;-72
2022/01/29 01:49:16;;;;;;;128.10;62.35;;;6.40;99.90;;;;;;5090533;28;20058;-73
2022/01/29 01:51:43;;;;;;;116.60;60.13;;;6.60;99.90;;;;;;5090488;28;20442;-72
2022/01/29 01:54:09;;;;;;;130.77;61.67;;;6.70;99.90;;;;;;5089153;28;20558;-72
2022/01/29 01:56:34;;;;;;;119.35;58.85;;;6.50;99.90;;;;;;5090659;28;20048;-72
2022/01/29 01:59:00;;;;;;;121.55;60.97;;;6.50;99.90;;;;;;5089128;28;20106;-71
2022/01/29 02:01:26;;;;;;;131.73;60.60;;;6.60;99.90;;;;;;5090377;28;20400;-72
2022/01/29 02:03:52;;;;;;;122.25;58.50;;;6.50;99.90;;;;;;5090300;28;20166;-72
2022/01/29 02:06:19;;;;;;;129.68;60.75;;;6.50;99.90;;;;;;5089371;28;20468;-73
2022/01/29 02:08:45;;;;;;;131.05;60.47;;;;;;;;;;5090186;28;20036;-73
2022/01/29 02:11:11;;;;;;;128.88;60.83;;;6.40;99.90;;;;;;5088862;28;20044;-73
2022/01/29 02:13:37;;;;;;;131.82;60.30;;;6.80;99.90;;;;;;5088775;28;20044;-73
2022/01/29 02:16:04;;;;;;;127.22;57.47;;;6.40;99.90;;;;;;5089840;28;20051;-73
2022/01/29 02:18:30;;;;;;;126.93;58.08;;;6.70;99.90;;;;;;5088296;28;20052;-74
2022/01/29 02:20:59;;;;;;;126.55;57.72;;;6.60;99.90;;;;;;5088449;28;20055;-73
2022/01/29 02:23:25;;;;;;;121.00;54.92;;;;;;;;;;5071376;28;20048;-74
2022/01/29 02:25:51;;;;;;;116.82;56.20;;;6.90;99.90;;;;;;5105335;28;20100;-73
2022/01/29 02:28:24;;;;;;;117.32;52.78;;;6.80;99.90;;;;;;5089813;28;20036;-74
2022/01/29 02:30:57;;;;;;;107.93;51.70;;;6.70;99.90;;;;;;5092617;28;20131;-74
2022/01/29 02:33:23;;;;;;;102.13;51.33;;;6.50;99.90;;;;;;5092309;28;20131;-74
2022/01/29 02:35:51;;;;;;;103.07;50.30;;;6.50;99.90;;;;;;5108835;28;20123;-74
2022/01/29 02:38:20;;;;;;;110.30;51.90;;;6.70;99.90;;;;;;5092020;28;20044;-74
2022/01/29 02:40:53;;;;;;;107.60;50.25;;;6.50;99.90;;;;;;5091965;28;20044;-73
2022/01/29 02:43:27;;;;;;;107.80;50.22;;;6.80;99.90;;;;;;5091809;28;20051;-74
2022/01/29 02:45:53;;;;;;;101.43;49.13;;;6.70;99.90;;;;;;5093326;28;20055;-74
2022/01/29 02:48:20;;;;;;;107.55;48.72;;;6.80;99.90;;;;;;5091771;28;20052;-74
2022/01/29 02:50:47;;;;;;;100.57;48.90;;;6.60;99.90;;;;;;5093112;28;20051;-74
2022/01/29 02:53:13;;;;;;;102.75;49.55;;;7.40;99.90;;;;;;5091512;28;20490;-74
2022/01/29 02:55:39;;;;;;;107.60;49.10;;;6.80;99.90;;;;;;5091462;28;20177;-74
2022/01/29 02:58:05;;;;;;;101.25;47.80;;;6.70;99.90;;;;;;5091702;28;20056;-74
2022/01/29 03:00:32;;;;;;;100.85;47.72;;;6.70;99.90;;;;;;5091482;28;20075;-73
2022/01/29 03:02:58;;;;;;;101.43;48.10;;;;;;;;;;5091313;28;20150;-73
2022/01/29 03:05:25;;;;;;;103.88;48.00;;;;;;;;;;5091348;28;20048;-73
2022/01/29 03:07:51;;;;;;;108.65;49.20;;;6.90;99.90;;;;;;5092683;28;20169;-74
2022/01/29 03:10:17;;;;;;;103.40;47.60;;;6.90;99.90;;;;;;5091212;28;20123;-73
2022/01/29 03:12:42;;;;;;;102.63;47.38;;;7.00;99.90;;;;;;5091526;28;20044;-73
2022/01/29 03:15:09;;;;;;;106.20;49.00;;;7.20;99.90;;;;;;5092506;28;20619;-73
2022/01/29 03:17:35;;;;;;;112.22;47.30;;;7.00;99.90;;;;;;5091033;28;20052;-74
2022/01/29 03:20:01;;;;;;;105.00;49.17;;;6.80;99.90;;;;;;5091480;28;20062;-73
2022/01/29 03:22:27;;;;;;;102.18;47.65;;;;;;;;;;5091145;28;20050;-74
2022/01/29 03:24:53;;;;;;;103.43;47.45;;;6.90;99.90;;;;;;5107907;28;20133;-73
2022/01/29 03:27:18;;;;;;;97.30;46.15;;;7.20;99.90;;;;;;5091088;28;20523;-74
2022/01/29 03:29:44;;;;;;;110.82;48.05;;;;;;;;;;5090772;28;20044;-73
2022/01/29 03:32:10;;;;;;;107.32;47.15;;;;;;;;;;5092023;28;20048;-74
2022/01/29 03:34:38;;;;;;;98.50;46.40;;;7.20;99.90;;;;;;5107814;28;20048;-73
2022/01/29 03:37:04;;;;;;;99.95;47.17;;;7.00;99.90;;;;;;5090939;28;20052;-73
2022/01/29 03:39:33;;;;;;;100.50;46.10;;;;;;;;;;5108007;28;20055;-73
2022/01/29 03:42:03;;;;;;;107.57;47.38;;;7.00;99.90;;;;;;5091810;28;20399;-74
2022/01/29 03:44:29;;;;;;;98.70;44.90;;;7.10;99.90;;;;;;5073766;28;20036;-74
2022/01/29 03:46:55;;;;;;;103.57;45.95;;;6.90;99.90;;;;;;5092077;28;20055;-74
2022/01/29 03:49:21;;;;;;;114.43;47.28;;;;;;;;;;5091759;28;20060;-74
2022/01/29 03:51:47;;;;;;;106.50;46.00;;;;;;;;;;5107390;28;20048;-74
2022/01/29 03:54:13;;;;;;;99.80;45.55;;;;;;;;;;5107318;28;20448;-74
2022/01/29 03:56:39;;;;;;;104.30;45.80;;;7.10;99.90;;;;;;5090796;28;20048;-74
2022/01/29 03:59:05;;;;;;;105.82;46.30;;;7.70;99.90;;;;;;5091701;28;20040;-74
2022/01/29 04:01:30;;;;;;;101.70;46.13;;;7.50;99.90;;;;;;5091761;28;20040;-73
2022/01/29 04:03:57;;;;;;;110.05;46.80;;;7.10;99.90;;;;;;5090763;28;20060;-74
2022/01/29 04:06:23;;;;;;;105.68;46.58;;;7.10;99.90;;;;;;5090803;28;20051;-73
2022/01/29 04:08:49;;;;;;;114.78;48.42;;;7.60;99.90;;;;;;5091599;28;20053;-74
2022/01/29 04:11:15;;;;;;;115.47;48.33;;;7.30;99.90;;;;;;5091453;28;20093;-74
2022/01/29 04:13:44;;;;;;;107.15;47.15;;;7.20;99.90;;;;;;5073067;28;20079;-74
2022/01/29 04:16:11;;;;;;;113.95;50.05;;;7.40;99.90;;;;;;5089737;28;20062;-74
2022/01/29 04:18:37;;;;;;;121.15;48.63;;;7.30;99.90;;;;;;5091472;28;20101;-74
2022/01/29 04:21:04;;;;;;;123.18;49.25;;;7.40;99.90;;;;;;5089849;28;20056;-74
2022/01/29 04:23:30;;;;;;;127.47;49.42;;;7.40;99.90;;;;;;5089729;28;20491;-73
2022/01/29 04:25:56;;;;;;;125.18;51.97;;;;;;;;;;5091023;28;20474;-74
2022/01/29 04:28:27;;;;;;;129.55;50.78;;;7.30;99.90;;;;;;5106572;28;20044;-73
2022/01/29 04:30:59;;;;;;;128.50;50.15;;;;;;;;;;5090019;28;20054;-74
2022/01/29 04:33:30;;;;;;;126.32;50.83;;;7.20;99.90;;;;;;5072885;28;20036;-73
2022/01/29 04:36:01;;;;;;;140.27;52.00;;;7.70;99.90;;;;;;5089255;28;20083;-74
2022/01/29 04:38:28;;;;;;;145.63;52.08;;;7.20;99.90;;;;;;5088220;28;20097;-74
2022/01/29 04:40:56;;;;;;;127.68;51.10;;;7.50;99.90;;;;;;5089212;28;20070;-74
2022/01/29 04:43:22;;;;;;;135.65;52.83;;;;;;;;;;5088085;28;20044;-75
2022/01/29 04:45:48;;;;;;;137.05;53.17;;;7.40;99.90;;;;;;5105093;28;20075;-74
2022/01/29 04:48:15;;;;;;;135.57;52.30;;;7.30;99.90;;;;;;5104825;28;20098;-75
2022/01/29 04:50:42;;;;;;;130.48;51.35;;;7.80;99.90;;;;;;5089279;28;20422;-74
2022/01/29 04:53:08;;;;;;;144.75;53.85;;;7.40;99.90;;;;;;5088764;28;20073;-72
2022/01/29 04:55:34;;;;;;;128.43;50.50;;;7.30;99.90;;;;;;5089275;28;20044;-72
2022/01/29 04:58:00;;;;;;;123.38;51.58;;;;;;;;;;5087974;28;20435;-72
2022/01/29 05:00:26;;;;;;;136.50;51.47;;;7.30;99.90;;;;;;5105145;28;20223;-72
2022/01/29 05:02:54;;;;;;;129.18;52.58;;;7.80;99.90;;;;;;5105055;28;20545;-72
2022/01/29 05:05:21;;;;;;;121.63;50.25;;;7.50;99.90;;;;;;5089972;28;20127;-72
2022/01/29 05:07:47;;;;;;;120.10;49.63;;;7.80;99.90;;;;;;5089100;28;20548;-72
2022/01/29 05:10:13;;;;;;;112.13;47.15;;;;;;;;;;5090514;28;20036;-73
2022/01/29 05:15:14;;;;;;;107.65;46.25;;;7.30;99.90;;;;;;5089013;28;20055;-72
2022/01/29 05:28:38;;;;;;;89.35;41.20;;;;;;;;;;5089227;28;20059;-74
2022/01/29 05:31:07;;;;;;;82.13;39.75;;;;;;;;;;5090679;28;20106;-74
2022/01/29 05:33:33;;;;;;;88.55;40.58;;;;;;;;;;5106005;28;20492;-74
2022/01/29 05:36:00;;;;;;;82.53;39.22;;;;;;;;;;5090677;28;20138;-74
2022/01/29 05:38:27;;;;;;;85.78;39.08;;;7.50;99.90;;;;;;5106045;28;20079;-74
2022/01/29 05:40:54;;;;;;;77.38;38.10;;;7.60;99.90;;;;;;5088972;28;20059;-74
2022/01/29 05:43:20;;;;;;;74.97;36.15;;;7.20;99.90;;;;;;5088853;28;20496;-74
2022/01/29 05:45:49;;;;;;;79.80;37.60;;;7.70;99.90;;;;;;5090199;28;20046;-74
2022/01/29 05:48:15;;;;;;;71.75;36.00;;;7.80;99.90;;;;;;5090233;28;20502;-74
2022/01/29 05:50:41;;;;;;;70.28;34.90;;;7.80;99.90;;;;;;5088887;28;20048;-73
2022/01/29 05:53:07;;;;;;;59.72;32.78;;;;;;;;;;5088714;28;20118;-73
2022/01/29 05:55:33;;;;;;;63.05;32.72;;;;;;;;;;5105973;28;20044;-74
2022/01/29 05:57:58;;;;;;;65.80;33.40;;;8.00;99.90;;;;;;5105740;28;20047;-74
2022/01/29 06:00:24;;;;;;;64.22;33.28;;;8.20;99.90;;;;;;5089305;28;20533;-74
2022/01/29 06:03:00;;;;;;;70.47;33.58;;;7.90;99.90;;;;;;5088955;28;20054;-73
2022/01/29 06:05:26;;;;;;;;;;;7.60;99.90;;;;;;5094663;28;20050;-71
2022/01/29 06:07:51;;;;;;;71.67;33.80;;;8.10;99.90;;;;;;5109595;28;19919;-72
2022/01/29 06:10:18;;;;;;;59.55;33.05;;;8.00;99.90;;;;;;5092608;28;20083;-72
2022/01/29 06:12:44;;;;;;;63.00;32.50;;;8.50;99.90;;;;;;5094024;28;20043;-71
2022/01/29 06:15:11;;;;;;;59.75;31.58;;;;;;;;;;5092054;28;20055;-74
2022/01/29 06:17:38;;;;;;;76.28;32.08;;;8.10;99.90;;;;;;5092398;28;20077;-72
2022/01/29 06:20:06;;;;;;;59.50;31.67;;;7.90;99.90;;;;;;5109894;28;20117;-74
2022/01/29 06:22:32;;;;;;;63.05;32.10;;;;;;;;;;5093958;28;20051;-74
2022/01/29 06:24:58;;;;;;;60.22;32.28;;;;;;;;;;5092628;28;20535;-74
2022/01/29 06:27:24;;;;;;;64.28;32.15;;;8.00;99.90;;;;;;5093387;28;20051;-74
2022/01/29 06:29:50;;;;;;;63.10;32.90;;;8.30;99.90;;;;;;5092238;28;20048;-73
2022/01/29 06:32:17;;;;;;;59.42;32.22;;;7.70;99.90;;;;;;5092333;28;20484;-74
2022/01/29 06:34:42;;;;;;;56.10;31.17;;;8.10;99.90;;;;;;5093727;28;20105;-74
2022/01/29 06:37:08;;;;;;;63.20;32.30;;;;;;;;;;5091743;28;20460;-75
2022/01/29 06:39:34;;;;;;;63.63;30.33;;;8.00;99.90;;;;;;5108793;28;20060;-74
2022/01/29 06:42:00;;;;;;;56.47;30.88;;;;;;;;;;5091808;28;20112;-75
2022/01/29 06:44:26;;;;;;;55.10;30.40;;;8.40;99.90;;;;;;5109281;28;20044;-74
2022/01/29 06:46:51;;;;;;;57.38;29.95;;;8.10;99.90;;;;;;5092202;28;20055;-74
2022/01/29 06:49:17;;;;;;;49.42;29.58;;;7.90;99.90;;;;;;5091904;28;20052;-74
2022/01/29 06:51:43;;;;;;;47.08;29.00;;;;;;;;;;5093032;28;20487;-75
2022/01/29 06:54:09;;;;;;;53.75;28.40;;;;;;;;;;5093026;28;20415;-74
2022/01/29 06:56:35;;;;;;;50.03;27.38;;;8.00;99.90;;;;;;5108827;28;20479;-74
2022/01/29 06:59:00;;;;;;;46.28;27.40;;;8.20;99.90;;;;;;5092950;28;20051;-74
2022/01/29 07:01:26;;;;;;;50.90;27.67;;;8.20;99.90;;;;;;5092628;28;20040;-74
2022/01/29 07:03:55;;;;;;;51.88;27.15;;;;;;;;;;5091541;28;20441;-74
2022/01/29 07:06:21;;;;;;;61.17;27.92;;;8.00;99.90;;;;;;5092617;28;20048;-74
2022/01/29 07:08:46;;;;;;;46.88;27.17;;;7.80;99.90;;;;;;5108242;28;20108;-74
2022/01/29 07:11:12;;;;;;;54.72;26.05;;;8.20;99.90;;;;;;5093111;28;20036;-74
2022/01/29 07:13:38;;;;;;;49.22;26.23;;;8.40;99.90;;;;;;5091861;28;20039;-73
2022/01/29 07:16:04;;;;;;;45.40;25.65;;;;;;;;;;5107449;28;20511;-74
2022/01/29 07:18:30;;;;;;;42.78;24.58;;;8.30;99.90;;;;;;5107384;28;20051;-74
2022/01/29 07:20:56;;;;;;;42.70;24.52;;;;;;;;;;5091650;28;20048;-74
2022/01/29 07:23:25;;;;;;;44.92;25.58;;;8.50;99.90;;;;;;5093244;28;20048;-74
2022/01/29 07:25:50;;;;;;;48.70;24.88;;;8.20;99.90;;;;;;5112251;28;20044;-74
2022/01/29 07:28:16;;;;;;;48.65;24.52;;;;;;;;;;5111235;28;20083;-74
2022/01/29 07:30:42;;;;;;;52.38;25.00;;;7.70;99.90;;;;;;5111986;28;20031;-74
2022/01/29 07:33:08;;;;;;;44.60;24.73;;;;;;;;;;5111395;28;20544;-75
2022/01/29 07:35:34;;;;;;;45.85;25.00;;;;;;;;;;5111178;28;20051;-72
2022/01/29 07:37:59;;;;;;;47.10;24.52;;;8.00;99.90;;;;;;5111372;28;20368;-72
2022/01/29 07:40:25;;;;;;;44.90;24.75;;;8.10;99.90;;;;;;5129030;27;20050;-72
2022/01/29 07:42:51;;;;;;;44.60;23.70;;;;;;;;;;5112477;28;20461;-72
2022/01/29 07:45:17;;;;;;;44.58;24.63;;;8.40;99.90;;;;;;5094226;28;20079;-74
2022/01/29 07:47:43;;;;;;;48.50;24.30;;;8.40;99.90;;;;;;5127976;27;20079;-74
2022/01/29 07:50:08;;;;;;;46.72;23.58;;;8.00;99.90;;;;;;5112283;28;20074;-74
2022/01/29 07:52:34;;;;;;;40.70;23.30;;;8.10;99.90;;;;;;5112111;28;20039;-74
2022/01/29 07:55:00;;;;;;;41.60;23.13;;;8.40;99.90;;;;;;5128193;27;20035;-74
2022/01/29 07:57:29;;;;;;;43.00;24.23;;;8.50;99.90;;;;;;5112011;28;20039;-74
2022/01/29 07:59:54;;;;;;;40.95;23.45;;;8.20;99.90;;;;;;5110809;28;20054;-74
2022/01/29 08:02:20;;;;;;;40.78;22.45;;;8.40;99.90;;;;;;5110997;28;20399;-74
2022/01/29 08:04:46;;;;;;;45.50;23.75;;;8.10;99.90;;;;;;5110689;28;20570;-74
2022/01/29 08:07:12;;;;;;;44.08;22.23;;;;;;;;;;5112073;28;20048;-74
2022/01/29 08:09:39;;;;;;;48.10;25.42;;;8.30;99.90;;;;;;5111120;28;20047;-74
2022/01/29 08:12:05;;;;;;;45.08;24.63;;;8.70;99.90;;;;;;5094283;28;20036;-73
2022/01/29 08:14:31;;;;;;;49.65;24.60;;;8.40;99.90;;;;;;5102570;27;20051;-74
2022/01/29 08:16:57;;;;;;;45.10;24.63;;;;;;;;;;5099836;28;20055;-73
2022/01/29 08:19:23;;;;;;;45.15;24.35;;;8.20;99.90;;;;;;5115286;27;20038;-74
2022/01/29 08:21:49;;;;;;;57.10;26.23;;;8.50;99.90;;;;;;5129591;27;20061;-73
2022/01/29 08:24:14;;;;;;;56.60;25.17;;;8.40;99.90;;;;;;5120129;27;20039;-73
2022/01/29 08:26:40;;;;;;;43.00;24.52;;;8.30;99.90;;;;;;5116909;27;20047;-73
2022/01/29 08:29:06;;;;;;;46.25;23.95;;;8.70;99.90;;;;;;5118221;27;20487;-72
2022/01/29 08:31:32;;;;;;;43.00;23.25;;;8.50;99.90;;;;;;5128976;27;20047;-72
2022/01/29 08:33:58;;;;;;;40.95;22.95;;;;;;;;;;5130395;27;20118;-73
2022/01/29 08:36:24;;;;;;;45.92;23.23;;;8.60;99.90;;;;;;5129575;27;20093;-73
2022/01/29 08:38:50;;;;;;;41.65;21.35;;;8.40;99.90;;;;;;5130141;27;20039;-72
2022/01/29 08:41:16;;;;;;;42.60;21.08;;;;;;;;;;5117901;27;20054;-73
2022/01/29 08:43:43;;;;;;;32.50;20.40;;;8.30;99.90;;;;;;5109049;28;20055;-72
2022/01/29 08:46:11;;;;;;;39.35;21.25;;;8.50;99.90;;;;;;5109008;28;20059;-72
2022/01/29 08:48:37;;;;;;;37.13;20.15;;;;;;;;;;5108887;28;20047;-72
2022/01/29 08:51:02;;;;;;;40.85;19.25;;;8.90;99.90;;;;;;5110262;27;20054;-72
2022/01/29 08:53:29;;;;;;;34.05;17.98;;;8.50;99.90;;;;;;5109251;28;20497;-71
2022/01/29 08:55:54;;;;;;;35.30;18.15;;;9.00;99.90;;;;;;5110546;27;20127;-72
2022/01/29 08:58:21;;;;;;;29.48;17.27;;;;;;;;;;5108917;28;20046;-72
2022/01/29 09:00:46;;;;;;;33.40;17.52;;;8.70;99.90;;;;;;5096097;28;20044;-72
2022/01/29 09:03:14;;;;;;;29.42;16.90;;;8.70;99.90;;;;;;5072110;28;20098;-72
2022/01/29 09:05:41;;;;;;;30.35;16.58;;;8.80;99.90;;;;;;5105006;28;20106;-71
2022/01/29 09:08:07;;;;;;;27.00;16.55;;;9.00;99.90;;;;;;5110095;27;20211;-72
2022/01/29 09:10:32;;;;;;;27.08;17.17;;;9.30;99.90;;;;;;5109959;28;20126;-72
2022/01/29 09:12:58;;;;;;;25.40;16.15;;;8.80;99.90;;;;;;5109809;27;20059;-72
2022/01/29 09:15:24;;;;;;;28.77;15.32;;;9.00;99.90;;;;;;5108474;28;20067;-71
2022/01/29 09:17:50;;;;;;;27.08;15.80;;;8.90;99.90;;;;;;5108726;28;20055;-72
2022/01/29 09:20:16;;;;;;;25.02;14.80;;;8.90;99.90;;;;;;5108822;28;20043;-72
2022/01/29 09:22:44;;;;;;;24.85;14.23;;;9.20;99.90;;;;;;5108568;28;20134;-72
2022/01/29 09:25:10;;;;;;;26.80;14.25;;;;;;;;;;5108856;28;20047;-72
2022/01/29 09:27:36;;;;;;;30.15;14.15;;;9.10;99.90;;;;;;5108256;28;20088;-72
2022/01/29 09:30:06;;;;;;;27.48;14.93;;;9.00;99.90;;;;;;5101401;28;20669;-72
2022/01/29 09:32:31;;;;;;;25.33;14.43;;;9.40;99.90;;;;;;5087435;28;20048;-72
2022/01/29 09:34:58;;;;;;;29.50;15.52;;;;;;;;;;5088440;28;20488;-72
2022/01/29 09:37:23;;;;;;;26.92;14.95;;;9.30;99.90;;;;;;5071062;28;20066;-72
2022/01/29 09:39:51;;;;;;;28.40;14.75;;;9.10;99.90;;;;;;5091219;28;20052;-72
2022/01/29 09:42:18;;;;;;;24.10;13.98;;;9.20;99.90;;;;;;5093057;28;20129;-72
2022/01/29 09:44:46;;;;;;;26.75;13.52;;;8.90;99.90;;;;;;5093706;28;20044;-72
2022/01/29 09:47:12;;;;;;;24.17;13.48;;;;;;;;;;5092391;28;20400;-72
2022/01/29 09:49:38;;;;;;;24.05;13.18;;;9.60;99.90;;;;;;5093377;28;20036;-72
2022/01/29 09:52:04;;;;;;;25.30;13.38;;;9.00;99.90;;;;;;5093768;28;20050;-71
2022/01/29 09:54:30;;;;;;;24.95;12.90;;;9.00;99.90;;;;;;5074661;28;20048;-72
2022/01/29 09:56:56;;;;;;;26.15;13.90;;;8.90;99.90;;;;;;5092069;28;20105;-72
2022/01/29 09:59:21;;;;;;;19.42;11.90;;;9.10;99.90;;;;;;5093708;28;20048;-73
2022/01/29 10:01:47;;;;;;;18.88;12.25;;;9.40;99.90;;;;;;5111415;28;20530;-71
2022/01/29 10:04:13;;;;;;;21.10;12.05;;;9.20;99.90;;;;;;5120126;27;20048;-72
2022/01/29 10:06:43;;;;;;;20.40;11.93;;;9.20;99.90;;;;;;5112672;28;20075;-72
2022/01/29 10:09:11;;;;;;;17.85;12.18;;;9.30;99.90;;;;;;5111074;28;20483;-72
2022/01/29 10:11:37;;;;;;;15.70;10.82;;;9.50;99.90;;;;;;5111151;28;20079;-72
2022/01/29 10:14:04;;;;;;;16.90;10.77;;;9.40;99.90;;;;;;5111029;28;20491;-72
2022/01/29 10:16:34;;;;;;;22.83;11.40;;;9.40;99.90;;;;;;5110947;28;20582;-71
2022/01/29 10:19:04;;;;;;;23.17;11.35;;;9.40;99.90;;;;;;5094636;28;20128;-72
2022/01/29 10:21:41;;;;;;;19.80;11.13;;;9.40;99.90;;;;;;5110926;28;20047;-72
2022/01/29 10:24:18;;;;;;;20.05;10.57;;;9.60;99.90;;;;;;5110959;28;20563;-72
2022/01/29 10:26:51;;;;;;;19.75;11.13;;;9.40;99.90;;;;;;5112265;27;20523;-72
2022/01/29 10:29:26;;;;;;;14.40;10.10;;;10.00;99.90;;;;;;5096481;28;20064;-72
2022/01/29 10:31:54;;;;;;;19.90;10.90;;;9.40;99.90;;;;;;5105021;28;20040;-72
2022/01/29 10:34:41;;;;;;;19.15;10.32;;;9.50;99.90;;;;;;5110675;28;20059;-72
2022/01/29 10:37:21;;;;;;;21.15;10.95;;;9.50;99.90;;;;;;5110875;28;20086;-72
2022/01/29 10:39:56;;;;;;;18.30;9.63;;;10.20;99.90;;;;;;5094020;28;20077;-72
2022/01/29 10:42:32;;;;;;;18.73;10.35;;;8.90;99.90;;;;;;5110702;28;20529;-73
2022/01/29 10:45:04;;;;;;;20.55;9.90;;;10.20;99.90;;;;;;5111882;27;20055;-74
2022/01/29 10:47:31;;;;;;;18.13;9.00;;;9.70;99.90;;;;;;5110722;28;20051;-75
2022/01/29 10:50:02;;;;;;;17.27;8.55;;;10.20;99.90;;;;;;5109206;28;20051;-75
2022/01/29 10:52:33;;;;;;;16.30;8.27;;;9.80;99.90;;;;;;5105554;28;20043;-70
2022/01/29 10:55:04;;;;;;;14.90;7.93;;;9.70;99.90;;;;;;5092274;28;20100;-70
2022/01/29 10:57:38;;;;;;;17.08;7.80;;;9.80;99.90;;;;;;5110118;28;20049;-70
2022/01/29 11:00:25;;;;;;;16.00;8.20;;;9.70;99.90;;;;;;5107526;28;20059;-70
2022/01/29 11:02:53;;;;;;;15.93;7.82;;;9.70;99.90;;;;;;5110087;28;20054;-70
2022/01/29 11:05:24;;;;;;;16.40;7.40;;;9.80;99.90;;;;;;5111096;27;20108;-70
2022/01/29 11:07:52;;;;;;;20.23;7.25;;;9.40;99.90;;;;;;5112903;28;20086;-70
2022/01/29 11:10:19;;;;;;;12.25;6.63;;;9.90;99.90;;;;;;5110404;28;20052;-70
2022/01/29 11:12:47;;;;;;;17.38;7.07;;;9.80;99.90;;;;;;5112497;28;20086;-70
2022/01/29 11:15:16;;;;;;;17.88;6.70;;;10.00;99.90;;;;;;5111800;27;20560;-70
2022/01/29 11:17:43;;;;;;;16.00;6.60;;;9.60;99.90;;;;;;5109850;28;20118;-70
2022/01/29 11:20:10;;;;;;;17.90;6.60;;;9.50;99.90;;;;;;5109611;27;20039;-70
2022/01/29 11:22:40;;;;;;;14.30;6.50;;;9.80;99.90;;;;;;5109703;28;20048;-70
2022/01/29 11:25:11;;;;;;;13.82;6.22;;;9.80;99.90;;;;;;5111264;28;20062;-70
2022/01/29 11:27:38;;;;;;;14.15;5.70;;;10.30;99.90;;;;;;5109463;28;20561;-70
2022/01/29 11:30:09;;;;;;;13.63;6.00;;;9.90;99.90;;;;;;5109645;28;20098;-70
2022/01/29 11:32:47;;;;;;;14.70;5.68;;;10.10;99.90;;;;;;5110657;27;20059;-70
2022/01/29 11:35:13;;;;;;;15.93;5.25;;;;;;;;;;5110880;28;20119;-70
2022/01/29 11:37:49;;;;;;;13.15;5.40;;;10.10;99.90;;;;;;5110575;27;20055;-71
2022/01/29 11:40:16;;;;;;;15.75;5.10;;;10.10;99.90;;;;;;5109617;28;20040;-71
2022/01/29 11:42:53;;;;;;;13.35;4.78;;;9.80;99.90;;;;;;5109333;28;20415;-70
2022/01/29 11:45:36;;;;;;;13.77;4.40;;;10.10;99.90;;;;;;5109566;28;20056;-70
2022/01/29 11:48:03;;;;;;;14.23;4.45;;;10.50;99.90;;;;;;5109441;28;20054;-71
2022/01/29 11:50:29;;;;;;;13.18;4.32;;;;;;;;;;5109207;28;20096;-70
2022/01/29 11:52:56;;;;;;;12.02;3.97;;;10.20;99.90;;;;;;5109394;28;20031;-70
2022/01/29 11:55:41;;;;;;;13.95;3.92;;;10.00;99.90;;;;;;5111615;28;20112;-71
2022/01/29 11:58:13;;;;;;;10.50;3.67;;;10.80;99.90;;;;;;5093397;28;20054;-70
2022/01/29 12:00:40;;;;;;;11.20;3.63;;;9.90;99.90;;;;;;5110250;28;20043;-70
2022/01/29 12:03:06;;;;;;;10.45;3.60;;;10.30;99.90;;;;;;5110079;27;20036;-69
2022/01/29 12:08:40;;;;;;;12.07;3.10;;;;;;;;;;5109955;28;20052;-70
2022/01/29 12:11:10;;;;;;;9.82;3.45;;;10.40;99.90;;;;;;5111490;28;20101;-70
2022/01/29 12:13:36;;;;;;;11.05;3.55;;;10.30;99.90;;;;;;5110108;28;20039;-70
2022/01/29 12:16:02;;;;;;;9.70;2.92;;;10.60;99.90;;;;;;5111176;28;20048;-70
2022/01/29 12:18:33;;;;;;;9.98;3.10;;;10.30;99.90;;;;;;5109795;28;20079;-71
2022/01/29 12:20:59;;;;;;;10.07;3.67;;;10.20;99.90;;;;;;5109432;28;20047;-70
2022/01/29 12:23:25;;;;;;;8.60;3.08;;;10.70;99.90;;;;;;5109271;28;20046;-71
2022/01/29 12:25:58;;;;;;;13.60;3.05;;;10.30;99.90;;;;;;5092671;28;20047;-71
2022/01/29 12:28:25;;;;;;;10.57;2.97;;;10.40;99.90;;;;;;5111328;28;20444;-73
2022/01/29 12:30:51;;;;;;;9.50;3.08;;;10.60;99.90;;;;;;5092669;28;20039;-73
2022/01/29 12:33:24;;;;;;;7.63;2.85;;;10.40;99.90;;;;;;5092732;28;20044;-74
2022/01/29 12:35:58;;;;;;;10.77;3.00;;;11.20;99.90;;;;;;5109927;28;20036;-73
2022/01/29 12:38:30;;;;;;;12.32;3.00;;;10.70;99.90;;;;;;5110968;28;20513;-73
2022/01/29 12:41:03;;;;;;;8.80;2.92;;;10.30;99.90;;;;;;5110812;28;20448;-71
2022/01/29 12:43:54;;;;;;;13.27;3.45;;;10.70;99.90;;;;;;5110765;28;20050;-71
2022/01/29 12:46:23;;;;;;;9.52;2.97;;;10.50;99.90;;;;;;5109518;28;20144;-70
2022/01/29 12:49:07;;;;;;;14.20;3.22;;;10.80;99.90;;;;;;5109379;28;20050;-70
2022/01/29 12:51:49;;;;;;;16.25;2.97;;;10.60;99.90;;;;;;5110904;28;20047;-70
2022/01/29 12:54:15;;;;;;;11.38;2.88;;;10.70;99.90;;;;;;5110829;27;20104;-70
2022/01/29 12:56:41;;;;;;;10.90;2.90;;;10.30;99.90;;;;;;5109127;28;20051;-72
2022/01/29 12:59:11;;;;;;;11.05;3.60;;;11.20;99.90;;;;;;5109096;28;20084;-70
2022/01/29 13:01:43;;;;;;;11.32;3.20;;;10.80;99.90;;;;;;5108948;28;20487;-70
2022/01/29 13:04:17;;;;;;;12.00;3.50;;;10.80;99.90;;;;;;5109127;28;20564;-70
2022/01/29 13:06:47;;;;;;;14.15;3.55;;;10.50;99.90;;;;;;5108839;28;20082;-71
2022/01/29 13:09:17;;;;;;;18.92;3.53;;;10.70;99.90;;;;;;5110226;28;20415;-71